CPX790 Details

Departure: Kingsford Smith International Airport (YSSY)
Arrival: Changi International Airport (WSSS) at N/A
Route: KADOM A576 PKS/N0482F360 A576 AS A587 ONOXA/N0482F380 G326 BLI M635 SURGA
Notes:


Current Weather Information
YSSY 171700Z 33005KT CAVOK 10/07 Q1020 NOSIG
WSSS 171700Z 15010KT 9999 FEW018 SCT170 BKN300 28/24 Q1011 NOSIG